RYR41MR EGCC-LERS
Flight info
| Callsign | RYR41MR |
|---|---|
| Flight time | N/A |
| Altitude | 35000 |
| Route | SANBA N859 HON UN859 SOPIL DCT BALAN DCT EVPOK DCT NARAK DCT GAI DCT LOMRA DCT ROCAN DCT PUMAL N31 BERGA |
| Aircraft | B38M/M-SADE3FGILRWY/SB1 |
Departure
| Time | N/A |
|---|---|
| Airport | Manchester Airport (EGCC) |
Arrival
| Time | 2026-04-25 15:09 |
|---|---|
| Airport | Reus Airport (LERS) |
| Time | Latitude | Longitude | Altitude | Speed | Heading |
|---|---|---|---|---|---|
| 2026-04-25 14:25 | 45.40665 | 1.39802 | 35134 ft | 437 kts | 171° |
| 2026-04-25 14:25 | 45.34698 | 1.41721 | 35147 ft | 437 kts | 171° |
| 2026-04-25 14:26 | 45.28787 | 1.43368 | 35150 ft | 433 kts | 176° |
| 2026-04-25 14:26 | 45.22798 | 1.44520 | 35150 ft | 435 kts | 175° |
| 2026-04-25 14:27 | 45.16811 | 1.45744 | 35152 ft | 435 kts | 175° |
| 2026-04-25 14:27 | 45.10827 | 1.46977 | 35158 ft | 434 kts | 175° |
| 2026-04-25 14:28 | 45.04849 | 1.48206 | 35155 ft | 434 kts | 175° |
| 2026-04-25 14:28 | 44.98865 | 1.49434 | 35138 ft | 434 kts | 175° |
| 2026-04-25 14:29 | 44.92882 | 1.50662 | 35142 ft | 435 kts | 174° |
| 2026-04-25 14:29 | 44.86895 | 1.51885 | 35142 ft | 435 kts | 175° |
| 2026-04-25 14:30 | 44.80910 | 1.53106 | 35136 ft | 435 kts | 174° |
| 2026-04-25 14:30 | 44.71894 | 1.54940 | 35140 ft | 436 kts | 174° |
| 2026-04-25 14:31 | 44.65883 | 1.56160 | 35153 ft | 437 kts | 174° |
| 2026-04-25 14:31 | 44.59871 | 1.57378 | 35139 ft | 436 kts | 174° |
| 2026-04-25 14:32 | 44.53865 | 1.58588 | 35151 ft | 436 kts | 174° |
| 2026-04-25 14:32 | 44.47859 | 1.59799 | 35148 ft | 436 kts | 174° |
| 2026-04-25 14:33 | 44.41860 | 1.61005 | 35150 ft | 436 kts | 174° |
| 2026-04-25 14:33 | 44.35853 | 1.62212 | 35151 ft | 435 kts | 174° |
| 2026-04-25 14:34 | 44.29897 | 1.63405 | 35143 ft | 435 kts | 174° |
| 2026-04-25 14:34 | 44.23903 | 1.64603 | 35150 ft | 435 kts | 174° |
| 2026-04-25 14:35 | 44.17906 | 1.65800 | 35146 ft | 435 kts | 174° |
| 2026-04-25 14:35 | 44.11915 | 1.66993 | 35151 ft | 435 kts | 174° |
| 2026-04-25 14:36 | 44.05921 | 1.68184 | 35154 ft | 435 kts | 174° |
| 2026-04-25 14:36 | 43.99931 | 1.69372 | 35143 ft | 435 kts | 174° |
| 2026-04-25 14:37 | 43.93936 | 1.70559 | 35152 ft | 435 kts | 174° |
| 2026-04-25 14:37 | 43.87942 | 1.71742 | 35151 ft | 435 kts | 174° |
| 2026-04-25 14:38 | 43.81948 | 1.72924 | 35148 ft | 435 kts | 174° |
| 2026-04-25 14:38 | 43.75954 | 1.74103 | 35157 ft | 435 kts | 174° |
| 2026-04-25 14:39 | 43.69957 | 1.75280 | 35166 ft | 435 kts | 174° |
| 2026-04-25 14:39 | 43.63959 | 1.76455 | 35148 ft | 435 kts | 174° |
| 2026-04-25 14:40 | 43.57967 | 1.77625 | 35150 ft | 434 kts | 174° |
| 2026-04-25 14:40 | 43.51983 | 1.78794 | 35145 ft | 434 kts | 174° |
| 2026-04-25 14:41 | 43.46004 | 1.79959 | 35147 ft | 434 kts | 174° |
| 2026-04-25 14:41 | 43.40019 | 1.81122 | 35138 ft | 434 kts | 174° |
| 2026-04-25 14:42 | 43.36067 | 1.81888 | 35148 ft | 433 kts | 174° |
| 2026-04-25 14:42 | 43.28095 | 1.83432 | 35136 ft | 432 kts | 174° |
| 2026-04-25 14:43 | 43.22140 | 1.84583 | 35136 ft | 432 kts | 174° |
| 2026-04-25 14:43 | 43.16194 | 1.85729 | 35146 ft | 431 kts | 174° |
| 2026-04-25 14:44 | 43.10298 | 1.86864 | 35138 ft | 431 kts | 174° |
| 2026-04-25 14:44 | 43.04362 | 1.88003 | 35147 ft | 431 kts | 174° |
| 2026-04-25 14:45 | 42.98426 | 1.89142 | 34941 ft | 431 kts | 174° |
| 2026-04-25 14:45 | 42.95452 | 1.89711 | 34588 ft | 431 kts | 173° |
| 2026-04-25 14:45 | 42.92493 | 1.90277 | 34083 ft | 428 kts | 173° |
| 2026-04-25 14:46 | 42.89549 | 1.90839 | 33430 ft | 427 kts | 173° |
| 2026-04-25 14:46 | 42.86600 | 1.91402 | 32706 ft | 429 kts | 173° |
| 2026-04-25 14:46 | 42.83633 | 1.91967 | 31932 ft | 432 kts | 174° |
| 2026-04-25 14:46 | 42.80644 | 1.92537 | 31170 ft | 436 kts | 173° |
| 2026-04-25 14:47 | 42.77629 | 1.93110 | 30434 ft | 439 kts | 173° |
| 2026-04-25 14:47 | 42.76611 | 1.93304 | 30177 ft | 440 kts | 173° |
| 2026-04-25 14:47 | 42.71549 | 1.94266 | 28744 ft | 444 kts | 173° |
| 2026-04-25 14:47 | 42.68472 | 1.94849 | 27780 ft | 449 kts | 173° |
| 2026-04-25 14:48 | 42.65363 | 1.95438 | 26924 ft | 452 kts | 173° |
| 2026-04-25 14:48 | 42.62266 | 1.96025 | 26449 ft | 445 kts | 173° |
| 2026-04-25 14:48 | 42.59226 | 1.96600 | 26039 ft | 438 kts | 173° |
| 2026-04-25 14:48 | 42.56227 | 1.97167 | 25601 ft | 432 kts | 173° |
| 2026-04-25 14:49 | 42.53274 | 1.97724 | 25162 ft | 426 kts | 173° |
| 2026-04-25 14:49 | 42.50348 | 1.98276 | 24724 ft | 422 kts | 173° |
| 2026-04-25 14:49 | 42.47456 | 1.98822 | 24300 ft | 417 kts | 173° |
| 2026-04-25 14:49 | 42.44597 | 1.99360 | 23877 ft | 413 kts | 173° |
| 2026-04-25 14:50 | 42.42719 | 1.99713 | 23646 ft | 409 kts | 173° |
| 2026-04-25 14:50 | 42.39005 | 2.00412 | 23295 ft | 397 kts | 173° |
| 2026-04-25 14:50 | 42.36292 | 2.00870 | 22983 ft | 390 kts | 176° |
| 2026-04-25 14:50 | 42.33594 | 2.00951 | 22470 ft | 387 kts | 188° |
| 2026-04-25 14:51 | 42.30991 | 2.00082 | 21891 ft | 386 kts | 202° |
| 2026-04-25 14:51 | 42.28475 | 1.98796 | 21314 ft | 387 kts | 200° |
| 2026-04-25 14:51 | 42.25925 | 1.97558 | 20561 ft | 393 kts | 200° |
| 2026-04-25 14:51 | 42.23325 | 1.96317 | 19812 ft | 399 kts | 199° |
| 2026-04-25 14:52 | 42.20731 | 1.95090 | 19224 ft | 400 kts | 199° |
| 2026-04-25 14:52 | 42.18119 | 1.93854 | 18771 ft | 396 kts | 199° |
| 2026-04-25 14:52 | 42.15496 | 1.92614 | 18347 ft | 392 kts | 199° |
| 2026-04-25 14:52 | 42.14663 | 1.92220 | 18194 ft | 391 kts | 199° |
| 2026-04-25 14:53 | 42.11258 | 1.90611 | 17625 ft | 385 kts | 199° |
| 2026-04-25 14:53 | 42.08746 | 1.89426 | 17224 ft | 380 kts | 199° |
| 2026-04-25 14:53 | 42.06268 | 1.88257 | 16834 ft | 375 kts | 199° |
| 2026-04-25 14:53 | 42.03819 | 1.87104 | 16463 ft | 371 kts | 199° |
| 2026-04-25 14:54 | 42.01393 | 1.85963 | 16084 ft | 367 kts | 199° |
| 2026-04-25 14:54 | 41.98995 | 1.84835 | 15712 ft | 364 kts | 199° |
| 2026-04-25 14:54 | 41.96620 | 1.83720 | 15345 ft | 360 kts | 199° |
| 2026-04-25 14:54 | 41.94260 | 1.82613 | 14975 ft | 357 kts | 199° |
| 2026-04-25 14:55 | 41.91921 | 1.81515 | 14600 ft | 355 kts | 199° |
| 2026-04-25 14:55 | 41.89602 | 1.80430 | 14241 ft | 352 kts | 199° |
| 2026-04-25 14:55 | 41.87311 | 1.79359 | 14101 ft | 342 kts | 199° |
| 2026-04-25 14:55 | 41.85111 | 1.78327 | 14105 ft | 328 kts | 199° |
| 2026-04-25 14:56 | 41.82986 | 1.77332 | 13828 ft | 324 kts | 200° |
| 2026-04-25 14:56 | 41.80831 | 1.76326 | 13164 ft | 332 kts | 199° |
| 2026-04-25 14:56 | 41.78626 | 1.75300 | 12527 ft | 339 kts | 199° |
| 2026-04-25 14:56 | 41.76385 | 1.74258 | 12051 ft | 340 kts | 199° |
| 2026-04-25 14:57 | 41.74159 | 1.73220 | 11702 ft | 337 kts | 199° |
| 2026-04-25 14:57 | 41.71952 | 1.72193 | 11397 ft | 333 kts | 199° |
| 2026-04-25 14:57 | 41.69772 | 1.71180 | 11063 ft | 331 kts | 199° |
| 2026-04-25 14:57 | 41.67596 | 1.70169 | 10668 ft | 331 kts | 199° |
| 2026-04-25 14:58 | 41.65439 | 1.69167 | 10295 ft | 324 kts | 199° |
| 2026-04-25 14:58 | 41.63342 | 1.68193 | 10021 ft | 311 kts | 199° |
| 2026-04-25 14:58 | 41.61339 | 1.67262 | 9714 ft | 299 kts | 199° |
| 2026-04-25 14:58 | 41.59393 | 1.66359 | 9409 ft | 295 kts | 199° |
| 2026-04-25 14:59 | 41.57460 | 1.65464 | 9093 ft | 293 kts | 199° |
| 2026-04-25 14:59 | 41.55538 | 1.64575 | 8785 ft | 291 kts | 199° |
| 2026-04-25 14:59 | 41.53625 | 1.63691 | 8469 ft | 290 kts | 198° |
| 2026-04-25 14:59 | 41.51723 | 1.62811 | 8174 ft | 289 kts | 198° |
| 2026-04-25 15:00 | 41.49829 | 1.61937 | 7872 ft | 288 kts | 198° |
| 2026-04-25 15:00 | 41.47940 | 1.61066 | 7574 ft | 286 kts | 197° |
| 2026-04-25 15:00 | 41.46064 | 1.60199 | 7283 ft | 285 kts | 198° |
| 2026-04-25 15:00 | 41.44198 | 1.59338 | 6979 ft | 283 kts | 198° |
| 2026-04-25 15:01 | 41.42342 | 1.58484 | 6678 ft | 281 kts | 197° |
| 2026-04-25 15:01 | 41.40499 | 1.57635 | 6376 ft | 280 kts | 197° |
| 2026-04-25 15:01 | 41.38665 | 1.56791 | 6115 ft | 277 kts | 197° |
| 2026-04-25 15:01 | 41.36878 | 1.55969 | 6039 ft | 265 kts | 198° |
| 2026-04-25 15:02 | 41.35178 | 1.55187 | 6033 ft | 253 kts | 198° |
| 2026-04-25 15:02 | 41.33563 | 1.54331 | 5890 ft | 249 kts | 204° |
| 2026-04-25 15:02 | 41.31998 | 1.53306 | 5500 ft | 253 kts | 205° |
| 2026-04-25 15:02 | 41.30395 | 1.52273 | 5083 ft | 257 kts | 203° |
| 2026-04-25 15:03 | 41.28795 | 1.51251 | 4710 ft | 252 kts | 203° |
| 2026-04-25 15:03 | 41.27236 | 1.50263 | 4411 ft | 244 kts | 202° |
| 2026-04-25 15:03 | 41.25709 | 1.49301 | 4167 ft | 242 kts | 202° |
| 2026-04-25 15:03 | 41.24276 | 1.48155 | 3943 ft | 242 kts | 223° |
| 2026-04-25 15:04 | 41.23335 | 1.46328 | 3763 ft | 239 kts | 244° |
| 2026-04-25 15:04 | 41.22726 | 1.44318 | 3676 ft | 230 kts | 248° |
| 2026-04-25 15:04 | 41.22171 | 1.42365 | 3551 ft | 222 kts | 248° |
| 2026-04-25 15:04 | 41.21627 | 1.40468 | 3407 ft | 217 kts | 248° |
| 2026-04-25 15:05 | 41.21104 | 1.38655 | 3289 ft | 205 kts | 248° |
| 2026-04-25 15:05 | 41.20598 | 1.36907 | 3069 ft | 201 kts | 248° |
| 2026-04-25 15:05 | 41.20101 | 1.35189 | 2817 ft | 198 kts | 246° |
| 2026-04-25 15:06 | 41.19130 | 1.31848 | 2346 ft | 191 kts | 248° |
| 2026-04-25 15:06 | 41.18654 | 1.30206 | 2101 ft | 190 kts | 248° |
| 2026-04-25 15:06 | 41.18195 | 1.28623 | 1866 ft | 175 kts | 249° |
| 2026-04-25 15:06 | 41.17774 | 1.27160 | 1649 ft | 166 kts | 246° |
| 2026-04-25 15:07 | 41.17365 | 1.25759 | 1440 ft | 159 kts | 247° |
| 2026-04-25 15:07 | 41.16977 | 1.24420 | 1208 ft | 152 kts | 247° |
| 2026-04-25 15:07 | 41.16594 | 1.23126 | 1010 ft | 151 kts | 246° |
| 2026-04-25 15:07 | 41.16216 | 1.21815 | 797 ft | 153 kts | 246° |
| 2026-04-25 15:08 | 41.15841 | 1.20510 | 622 ft | 150 kts | 246° |
| 2026-04-25 15:08 | 41.15471 | 1.19222 | 417 ft | 153 kts | 245° |
| 2026-04-25 15:08 | 41.15084 | 1.17897 | 244 ft | 147 kts | 246° |
| 2026-04-25 15:08 | 41.14790 | 1.16893 | 243 ft | 83 kts | 249° |
| 2026-04-25 15:09 | 41.14636 | 1.16367 | 243 ft | 52 kts | 249° |
| 2026-04-25 15:09 | 41.14546 | 1.16054 | 243 ft | 23 kts | 249° |
| 2026-04-25 15:09 | 41.14570 | 1.15899 | 243 ft | 9 kts | 339° |
| 2026-04-25 15:10 | 41.14616 | 1.15876 | 243 ft | 6 kts | 339° |
| 2026-04-25 15:10 | 41.14637 | 1.15861 | 243 ft | 3 kts | 321° |
| 2026-04-25 15:10 | 41.14650 | 1.15813 | 243 ft | 2 kts | 262° |
| 2026-04-25 15:11 | 41.14644 | 1.15787 | 243 ft | 0 kts | 251° |
| 2026-04-25 15:12 | 41.14643 | 1.15783 | 243 ft | 2 kts | 251° |
| 2026-04-25 15:12 | 41.14635 | 1.15756 | 243 ft | 5 kts | 250° |
| 2026-04-25 15:12 | 41.14621 | 1.15704 | 243 ft | 7 kts | 249° |
| 2026-04-25 15:12 | 41.14614 | 1.15681 | 243 ft | 8 kts | 249° |
| 2026-04-25 15:13 | 41.14587 | 1.15544 | 243 ft | 9 kts | 297° |
| 2026-04-25 15:13 | 41.14647 | 1.15501 | 243 ft | 0 kts | 339° |